FUE weather

Fuerteventura Airport
Fuerteventura Island, Canary Islands, Spain

Public forecast

Using degrees Celsius for public forecast. Weather courtesy of forecast.io.

Current aviation weather report (METAR) for Fuerteventura Airport

Retrieved 2020/02/17 03:30 UTC (0 seconds ago):

GCFV 170330Z AUTO 03011KT 360V060 9999 OVC010 18/16 Q1025

Aviation forecast (TAF) for Fuerteventura Airport

Retrieved 2020-02-17 03:27 UTC (0 seconds ago):

TAF TAF GCFV 170200Z 1703/1803 01012KT 9999 BKN015 TX22/1715Z TN17/1706Z PROB30 TEMPO 1703/1706 4000 BR BKN005